sensor_id;sensor_type;location;lat;lon;timestamp;P1;durP1;ratioP1;P2;durP2;ratioP2
29934;SDS011;19905;53.370;-6.314;2023-04-28T00:01:18;41.20;;;24.70;;
29934;SDS011;19905;53.370;-6.314;2023-04-28T00:03:48;42.55;;;25.75;;
29934;SDS011;19905;53.370;-6.314;2023-04-28T00:06:17;42.22;;;23.98;;
29934;SDS011;19905;53.370;-6.314;2023-04-28T00:11:19;45.20;;;25.23;;
29934;SDS011;19905;53.370;-6.314;2023-04-28T00:13:50;42.80;;;24.88;;
29934;SDS011;19905;53.370;-6.314;2023-04-28T00:16:19;39.60;;;24.13;;
29934;SDS011;19905;53.370;-6.314;2023-04-28T00:18:47;38.33;;;22.95;;
29934;SDS011;19905;53.370;-6.314;2023-04-28T00:21:17;42.45;;;25.58;;
29934;SDS011;19905;53.370;-6.314;2023-04-28T00:23:46;43.58;;;24.40;;
29934;SDS011;19905;53.370;-6.314;2023-04-28T00:26:16;41.65;;;23.85;;
29934;SDS011;19905;53.370;-6.314;2023-04-28T00:28:45;41.50;;;24.35;;
29934;SDS011;19905;53.370;-6.314;2023-04-28T00:31:14;42.72;;;23.88;;
29934;SDS011;19905;53.370;-6.314;2023-04-28T00:33:43;44.13;;;25.33;;
29934;SDS011;19905;53.370;-6.314;2023-04-28T00:36:12;45.75;;;27.05;;
29934;SDS011;19905;53.370;-6.314;2023-04-28T00:38:42;47.90;;;28.60;;
29934;SDS011;19905;53.370;-6.314;2023-04-28T00:41:12;53.58;;;28.88;;
29934;SDS011;19905;53.370;-6.314;2023-04-28T00:43:46;53.58;;;28.98;;
29934;SDS011;19905;53.370;-6.314;2023-04-28T00:46:18;50.67;;;28.13;;
29934;SDS011;19905;53.370;-6.314;2023-04-28T00:48:57;55.17;;;29.88;;
29934;SDS011;19905;53.370;-6.314;2023-04-28T00:51:25;52.40;;;28.70;;
29934;SDS011;19905;53.370;-6.314;2023-04-28T00:53:55;48.65;;;28.27;;
29934;SDS011;19905;53.370;-6.314;2023-04-28T00:56:28;46.55;;;26.73;;
29934;SDS011;19905;53.370;-6.314;2023-04-28T00:58:59;46.60;;;26.65;;
29934;SDS011;19905;53.370;-6.314;2023-04-28T01:01:29;48.22;;;27.40;;
29934;SDS011;19905;53.370;-6.314;2023-04-28T01:03:58;46.75;;;27.45;;
29934;SDS011;19905;53.370;-6.314;2023-04-28T01:06:27;45.28;;;27.52;;
29934;SDS011;19905;53.370;-6.314;2023-04-28T01:08:58;50.65;;;27.35;;
29934;SDS011;19905;53.370;-6.314;2023-04-28T01:11:26;49.22;;;27.35;;
29934;SDS011;19905;53.370;-6.314;2023-04-28T01:13:59;47.78;;;27.65;;
29934;SDS011;19905;53.370;-6.314;2023-04-28T01:16:30;53.53;;;27.33;;
29934;SDS011;19905;53.370;-6.314;2023-04-28T01:19:00;50.97;;;28.40;;
29934;SDS011;19905;53.370;-6.314;2023-04-28T01:21:30;52.05;;;28.33;;
29934;SDS011;19905;53.370;-6.314;2023-04-28T01:24:00;49.80;;;27.67;;
29934;SDS011;19905;53.370;-6.314;2023-04-28T01:26:29;50.72;;;28.17;;
29934;SDS011;19905;53.370;-6.314;2023-04-28T01:28:57;45.00;;;26.30;;
29934;SDS011;19905;53.370;-6.314;2023-04-28T01:31:27;46.17;;;25.50;;
29934;SDS011;19905;53.370;-6.314;2023-04-28T01:33:56;43.38;;;24.88;;
29934;SDS011;19905;53.370;-6.314;2023-04-28T01:36:25;49.15;;;25.65;;
29934;SDS011;19905;53.370;-6.314;2023-04-28T01:38:54;46.38;;;24.92;;
29934;SDS011;19905;53.370;-6.314;2023-04-28T01:41:25;44.90;;;24.92;;
29934;SDS011;19905;53.370;-6.314;2023-04-28T01:43:56;49.60;;;26.45;;
29934;SDS011;19905;53.370;-6.314;2023-04-28T01:46:25;48.05;;;24.77;;
29934;SDS011;19905;53.370;-6.314;2023-04-28T01:48:54;43.72;;;24.38;;
29934;SDS011;19905;53.370;-6.314;2023-04-28T01:51:24;47.22;;;24.73;;
29934;SDS011;19905;53.370;-6.314;2023-04-28T01:53:55;47.90;;;25.40;;
29934;SDS011;19905;53.370;-6.314;2023-04-28T01:56:25;48.95;;;25.02;;
29934;SDS011;19905;53.370;-6.314;2023-04-28T01:58:55;50.13;;;25.30;;
29934;SDS011;19905;53.370;-6.314;2023-04-28T02:01:25;47.58;;;25.40;;
29934;SDS011;19905;53.370;-6.314;2023-04-28T02:03:53;45.25;;;24.38;;
29934;SDS011;19905;53.370;-6.314;2023-04-28T02:06:23;42.13;;;23.20;;
29934;SDS011;19905;53.370;-6.314;2023-04-28T02:08:55;43.72;;;23.80;;
29934;SDS011;19905;53.370;-6.314;2023-04-28T02:11:25;44.58;;;24.33;;
29934;SDS011;19905;53.370;-6.314;2023-04-28T02:13:54;41.47;;;23.35;;
29934;SDS011;19905;53.370;-6.314;2023-04-28T02:16:22;45.25;;;24.17;;
29934;SDS011;19905;53.370;-6.314;2023-04-28T02:18:58;44.92;;;22.83;;
29934;SDS011;19905;53.370;-6.314;2023-04-28T02:21:26;42.40;;;23.15;;
29934;SDS011;19905;53.370;-6.314;2023-04-28T02:23:55;43.40;;;23.92;;
29934;SDS011;19905;53.370;-6.314;2023-04-28T02:26:25;47.25;;;24.75;;
29934;SDS011;19905;53.370;-6.314;2023-04-28T02:28:54;41.45;;;23.35;;
29934;SDS011;19905;53.370;-6.314;2023-04-28T02:31:23;40.88;;;23.25;;
29934;SDS011;19905;53.370;-6.314;2023-04-28T02:33:53;49.42;;;25.58;;
29934;SDS011;19905;53.370;-6.314;2023-04-28T02:36:23;51.22;;;25.65;;
29934;SDS011;19905;53.370;-6.314;2023-04-28T02:38:53;48.78;;;24.75;;
29934;SDS011;19905;53.370;-6.314;2023-04-28T02:41:21;48.97;;;25.02;;
29934;SDS011;19905;53.370;-6.314;2023-04-28T02:43:53;48.17;;;24.50;;
29934;SDS011;19905;53.370;-6.314;2023-04-28T02:48:55;48.90;;;25.15;;
29934;SDS011;19905;53.370;-6.314;2023-04-28T02:51:23;48.85;;;25.85;;
29934;SDS011;19905;53.370;-6.314;2023-04-28T02:53:53;49.13;;;25.63;;
29934;SDS011;19905;53.370;-6.314;2023-04-28T02:56:22;49.63;;;25.63;;
29934;SDS011;19905;53.370;-6.314;2023-04-28T02:58:57;51.17;;;25.80;;
29934;SDS011;19905;53.370;-6.314;2023-04-28T03:01:26;47.92;;;25.45;;
29934;SDS011;19905;53.370;-6.314;2023-04-28T03:03:54;51.97;;;26.00;;
29934;SDS011;19905;53.370;-6.314;2023-04-28T03:06:23;53.53;;;27.45;;
29934;SDS011;19905;53.370;-6.314;2023-04-28T03:08:52;50.05;;;25.63;;
29934;SDS011;19905;53.370;-6.314;2023-04-28T03:11:21;57.50;;;27.25;;
29934;SDS011;19905;53.370;-6.314;2023-04-28T03:13:51;49.70;;;26.90;;
29934;SDS011;19905;53.370;-6.314;2023-04-28T03:16:23;53.33;;;26.48;;
29934;SDS011;19905;53.370;-6.314;2023-04-28T03:18:52;52.10;;;26.40;;
29934;SDS011;19905;53.370;-6.314;2023-04-28T03:21:20;51.15;;;27.48;;
29934;SDS011;19905;53.370;-6.314;2023-04-28T03:23:50;54.85;;;27.05;;
29934;SDS011;19905;53.370;-6.314;2023-04-28T03:26:19;51.63;;;27.05;;
29934;SDS011;19905;53.370;-6.314;2023-04-28T03:28:48;51.55;;;27.10;;
29934;SDS011;19905;53.370;-6.314;2023-04-28T03:31:17;49.30;;;27.10;;
29934;SDS011;19905;53.370;-6.314;2023-04-28T03:33:47;48.17;;;26.50;;
29934;SDS011;19905;53.370;-6.314;2023-04-28T03:36:16;51.80;;;28.17;;
29934;SDS011;19905;53.370;-6.314;2023-04-28T03:38:44;51.00;;;26.88;;
29934;SDS011;19905;53.370;-6.314;2023-04-28T03:41:14;53.17;;;28.50;;
29934;SDS011;19905;53.370;-6.314;2023-04-28T03:43:44;51.97;;;27.98;;
29934;SDS011;19905;53.370;-6.314;2023-04-28T03:46:12;51.88;;;28.30;;
29934;SDS011;19905;53.370;-6.314;2023-04-28T03:48:41;54.95;;;27.75;;
29934;SDS011;19905;53.370;-6.314;2023-04-28T03:51:13;54.30;;;28.70;;
29934;SDS011;19905;53.370;-6.314;2023-04-28T03:53:42;52.90;;;28.77;;
29934;SDS011;19905;53.370;-6.314;2023-04-28T03:56:10;57.13;;;29.40;;
29934;SDS011;19905;53.370;-6.314;2023-04-28T03:58:40;59.20;;;29.73;;
29934;SDS011;19905;53.370;-6.314;2023-04-28T04:01:09;60.00;;;30.70;;
29934;SDS011;19905;53.370;-6.314;2023-04-28T04:03:37;57.10;;;30.75;;
29934;SDS011;19905;53.370;-6.314;2023-04-28T04:06:08;58.28;;;30.38;;
29934;SDS011;19905;53.370;-6.314;2023-04-28T04:08:38;58.35;;;30.83;;
29934;SDS011;19905;53.370;-6.314;2023-04-28T04:11:10;59.90;;;30.98;;
29934;SDS011;19905;53.370;-6.314;2023-04-28T04:13:39;62.88;;;32.35;;
29934;SDS011;19905;53.370;-6.314;2023-04-28T04:16:09;65.15;;;32.05;;
29934;SDS011;19905;53.370;-6.314;2023-04-28T04:18:37;63.50;;;32.03;;
29934;SDS011;19905;53.370;-6.314;2023-04-28T04:21:06;67.05;;;32.35;;
29934;SDS011;19905;53.370;-6.314;2023-04-28T04:23:35;65.05;;;32.20;;
29934;SDS011;19905;53.370;-6.314;2023-04-28T04:26:07;67.35;;;32.22;;
29934;SDS011;19905;53.370;-6.314;2023-04-28T04:28:36;64.95;;;31.48;;
29934;SDS011;19905;53.370;-6.314;2023-04-28T04:31:07;65.13;;;32.13;;
29934;SDS011;19905;53.370;-6.314;2023-04-28T04:33:36;66.70;;;32.70;;
29934;SDS011;19905;53.370;-6.314;2023-04-28T04:36:05;74.30;;;34.00;;
29934;SDS011;19905;53.370;-6.314;2023-04-28T04:38:35;67.35;;;32.55;;
29934;SDS011;19905;53.370;-6.314;2023-04-28T04:41:04;70.50;;;34.40;;
29934;SDS011;19905;53.370;-6.314;2023-04-28T04:43:36;73.00;;;34.88;;
29934;SDS011;19905;53.370;-6.314;2023-04-28T04:46:04;79.15;;;35.85;;
29934;SDS011;19905;53.370;-6.314;2023-04-28T04:48:33;74.85;;;35.78;;
29934;SDS011;19905;53.370;-6.314;2023-04-28T04:51:01;78.70;;;35.83;;
29934;SDS011;19905;53.370;-6.314;2023-04-28T04:56:01;81.72;;;37.22;;
29934;SDS011;19905;53.370;-6.314;2023-04-28T04:58:29;85.43;;;36.35;;
29934;SDS011;19905;53.370;-6.314;2023-04-28T05:01:01;86.28;;;39.10;;
29934;SDS011;19905;53.370;-6.314;2023-04-28T05:03:30;89.90;;;37.97;;
29934;SDS011;19905;53.370;-6.314;2023-04-28T05:05:59;85.35;;;37.47;;
29934;SDS011;19905;53.370;-6.314;2023-04-28T05:08:28;84.10;;;38.67;;
29934;SDS011;19905;53.370;-6.314;2023-04-28T05:10:57;94.78;;;40.78;;
29934;SDS011;19905;53.370;-6.314;2023-04-28T05:13:25;97.40;;;40.30;;
29934;SDS011;19905;53.370;-6.314;2023-04-28T05:15:54;100.55;;;41.15;;
29934;SDS011;19905;53.370;-6.314;2023-04-28T05:18:26;93.28;;;39.95;;
29934;SDS011;19905;53.370;-6.314;2023-04-28T05:20:54;99.88;;;41.72;;
29934;SDS011;19905;53.370;-6.314;2023-04-28T05:23:23;95.75;;;41.20;;
29934;SDS011;19905;53.370;-6.314;2023-04-28T05:25:51;90.82;;;40.20;;
29934;SDS011;19905;53.370;-6.314;2023-04-28T05:28:21;93.55;;;40.53;;
29934;SDS011;19905;53.370;-6.314;2023-04-28T05:30:49;93.35;;;40.35;;
29934;SDS011;19905;53.370;-6.314;2023-04-28T05:33:18;99.68;;;40.63;;
29934;SDS011;19905;53.370;-6.314;2023-04-28T05:35:49;97.72;;;41.15;;
29934;SDS011;19905;53.370;-6.314;2023-04-28T05:38:17;96.78;;;39.75;;
29934;SDS011;19905;53.370;-6.314;2023-04-28T05:40:55;95.15;;;40.33;;
29934;SDS011;19905;53.370;-6.314;2023-04-28T05:43:24;102.05;;;40.72;;
29934;SDS011;19905;53.370;-6.314;2023-04-28T05:48:24;93.78;;;39.95;;
29934;SDS011;19905;53.370;-6.314;2023-04-28T05:50:55;88.78;;;39.45;;
29934;SDS011;19905;53.370;-6.314;2023-04-28T05:53:29;94.50;;;40.67;;
29934;SDS011;19905;53.370;-6.314;2023-04-28T05:55:58;96.07;;;39.88;;
29934;SDS011;19905;53.370;-6.314;2023-04-28T05:58:27;86.60;;;38.90;;
29934;SDS011;19905;53.370;-6.314;2023-04-28T06:00:57;97.68;;;41.47;;
29934;SDS011;19905;53.370;-6.314;2023-04-28T06:03:26;98.30;;;42.58;;
29934;SDS011;19905;53.370;-6.314;2023-04-28T06:05:57;100.63;;;43.53;;
29934;SDS011;19905;53.370;-6.314;2023-04-28T06:08:25;99.95;;;42.92;;
29934;SDS011;19905;53.370;-6.314;2023-04-28T06:10:54;103.90;;;43.60;;
29934;SDS011;19905;53.370;-6.314;2023-04-28T06:13:23;97.90;;;42.92;;
29934;SDS011;19905;53.370;-6.314;2023-04-28T06:15:51;110.72;;;45.20;;
29934;SDS011;19905;53.370;-6.314;2023-04-28T06:18:20;106.18;;;45.47;;
29934;SDS011;19905;53.370;-6.314;2023-04-28T06:20:50;111.53;;;46.13;;
29934;SDS011;19905;53.370;-6.314;2023-04-28T06:23:20;110.32;;;45.47;;
29934;SDS011;19905;53.370;-6.314;2023-04-28T06:25:48;103.88;;;45.08;;
29934;SDS011;19905;53.370;-6.314;2023-04-28T06:28:17;108.80;;;45.13;;
29934;SDS011;19905;53.370;-6.314;2023-04-28T06:30:45;108.60;;;45.08;;
29934;SDS011;19905;53.370;-6.314;2023-04-28T06:33:14;104.78;;;44.88;;
29934;SDS011;19905;53.370;-6.314;2023-04-28T06:35:43;101.65;;;44.22;;
29934;SDS011;19905;53.370;-6.314;2023-04-28T06:38:12;96.32;;;43.30;;
29934;SDS011;19905;53.370;-6.314;2023-04-28T06:40:42;100.15;;;44.42;;
29934;SDS011;19905;53.370;-6.314;2023-04-28T06:43:11;95.25;;;42.67;;
29934;SDS011;19905;53.370;-6.314;2023-04-28T06:45:39;88.22;;;40.40;;
29934;SDS011;19905;53.370;-6.314;2023-04-28T06:48:08;93.35;;;41.75;;
29934;SDS011;19905;53.370;-6.314;2023-04-28T06:50:37;86.55;;;40.90;;
29934;SDS011;19905;53.370;-6.314;2023-04-28T06:53:08;88.47;;;39.53;;
29934;SDS011;19905;53.370;-6.314;2023-04-28T06:55:37;80.07;;;37.83;;
29934;SDS011;19905;53.370;-6.314;2023-04-28T06:58:07;80.80;;;39.17;;
29934;SDS011;19905;53.370;-6.314;2023-04-28T07:00:35;82.00;;;38.53;;
29934;SDS011;19905;53.370;-6.314;2023-04-28T07:03:04;81.38;;;38.05;;
29934;SDS011;19905;53.370;-6.314;2023-04-28T07:05:33;83.28;;;38.85;;
29934;SDS011;19905;53.370;-6.314;2023-04-28T07:08:04;78.53;;;38.40;;
29934;SDS011;19905;53.370;-6.314;2023-04-28T07:10:33;76.38;;;36.95;;
29934;SDS011;19905;53.370;-6.314;2023-04-28T07:13:02;78.15;;;37.25;;
29934;SDS011;19905;53.370;-6.314;2023-04-28T07:15:32;71.25;;;35.88;;
29934;SDS011;19905;53.370;-6.314;2023-04-28T07:18:00;69.47;;;35.03;;
29934;SDS011;19905;53.370;-6.314;2023-04-28T07:20:29;66.82;;;35.35;;
29934;SDS011;19905;53.370;-6.314;2023-04-28T07:22:58;68.82;;;34.20;;
29934;SDS011;19905;53.370;-6.314;2023-04-28T07:25:27;59.25;;;31.08;;
29934;SDS011;19905;53.370;-6.314;2023-04-28T07:27:57;50.75;;;27.50;;
29934;SDS011;19905;53.370;-6.314;2023-04-28T07:30:26;52.08;;;27.75;;
29934;SDS011;19905;53.370;-6.314;2023-04-28T07:32:56;51.40;;;27.83;;
29934;SDS011;19905;53.370;-6.314;2023-04-28T07:35:25;48.90;;;27.73;;
29934;SDS011;19905;53.370;-6.314;2023-04-28T07:37:55;47.38;;;26.25;;
29934;SDS011;19905;53.370;-6.314;2023-04-28T07:40:23;43.22;;;24.67;;
29934;SDS011;19905;53.370;-6.314;2023-04-28T07:42:52;41.13;;;23.55;;
29934;SDS011;19905;53.370;-6.314;2023-04-28T07:45:21;43.50;;;24.25;;
29934;SDS011;19905;53.370;-6.314;2023-04-28T07:47:49;42.75;;;23.02;;
29934;SDS011;19905;53.370;-6.314;2023-04-28T07:50:20;36.85;;;21.30;;
29934;SDS011;19905;53.370;-6.314;2023-04-28T07:52:49;38.47;;;21.63;;
29934;SDS011;19905;53.370;-6.314;2023-04-28T07:55:17;40.15;;;20.50;;
29934;SDS011;19905;53.370;-6.314;2023-04-28T07:57:45;39.65;;;21.02;;
29934;SDS011;19905;53.370;-6.314;2023-04-28T08:00:15;32.78;;;19.88;;
29934;SDS011;19905;53.370;-6.314;2023-04-28T08:02:44;33.80;;;19.20;;
29934;SDS011;19905;53.370;-6.314;2023-04-28T08:05:13;33.03;;;18.90;;
29934;SDS011;19905;53.370;-6.314;2023-04-28T08:07:45;25.20;;;15.40;;
29934;SDS011;19905;53.370;-6.314;2023-04-28T08:10:14;24.73;;;14.05;;
29934;SDS011;19905;53.370;-6.314;2023-04-28T08:12:43;20.00;;;12.80;;
29934;SDS011;19905;53.370;-6.314;2023-04-28T08:15:12;22.98;;;12.88;;
29934;SDS011;19905;53.370;-6.314;2023-04-28T08:17:43;19.58;;;12.18;;
29934;SDS011;19905;53.370;-6.314;2023-04-28T08:20:12;20.42;;;12.95;;
29934;SDS011;19905;53.370;-6.314;2023-04-28T08:22:50;19.73;;;12.45;;
29934;SDS011;19905;53.370;-6.314;2023-04-28T08:25:19;18.90;;;10.25;;
29934;SDS011;19905;53.370;-6.314;2023-04-28T08:27:48;11.27;;;7.88;;
29934;SDS011;19905;53.370;-6.314;2023-04-28T08:30:17;12.20;;;8.00;;
29934;SDS011;19905;53.370;-6.314;2023-04-28T08:32:45;9.88;;;7.03;;
29934;SDS011;19905;53.370;-6.314;2023-04-28T08:35:14;10.88;;;6.85;;
29934;SDS011;19905;53.370;-6.314;2023-04-28T08:37:42;11.23;;;6.70;;
29934;SDS011;19905;53.370;-6.314;2023-04-28T08:40:13;9.80;;;7.13;;
29934;SDS011;19905;53.370;-6.314;2023-04-28T08:42:42;9.23;;;6.78;;
29934;SDS011;19905;53.370;-6.314;2023-04-28T08:45:13;8.63;;;6.00;;
29934;SDS011;19905;53.370;-6.314;2023-04-28T08:47:42;9.60;;;6.35;;
29934;SDS011;19905;53.370;-6.314;2023-04-28T08:50:13;7.72;;;6.10;;
29934;SDS011;19905;53.370;-6.314;2023-04-28T08:52:42;9.15;;;6.45;;
29934;SDS011;19905;53.370;-6.314;2023-04-28T08:55:13;7.15;;;5.50;;
29934;SDS011;19905;53.370;-6.314;2023-04-28T08:57:43;7.35;;;4.95;;
29934;SDS011;19905;53.370;-6.314;2023-04-28T09:00:17;5.93;;;4.72;;
29934;SDS011;19905;53.370;-6.314;2023-04-28T09:02:45;4.68;;;3.90;;
29934;SDS011;19905;53.370;-6.314;2023-04-28T09:05:14;5.93;;;4.72;;
29934;SDS011;19905;53.370;-6.314;2023-04-28T09:07:44;5.05;;;4.22;;
29934;SDS011;19905;53.370;-6.314;2023-04-28T09:10:20;5.65;;;4.60;;
29934;SDS011;19905;53.370;-6.314;2023-04-28T09:12:50;4.50;;;3.80;;
29934;SDS011;19905;53.370;-6.314;2023-04-28T09:15:27;5.88;;;4.57;;
29934;SDS011;19905;53.370;-6.314;2023-04-28T09:17:59;4.38;;;3.97;;
29934;SDS011;19905;53.370;-6.314;2023-04-28T09:20:29;5.53;;;4.50;;
29934;SDS011;19905;53.370;-6.314;2023-04-28T09:23:12;5.40;;;3.97;;
29934;SDS011;19905;53.370;-6.314;2023-04-28T09:25:57;4.15;;;3.42;;
29934;SDS011;19905;53.370;-6.314;2023-04-28T09:28:27;3.33;;;2.72;;
29934;SDS011;19905;53.370;-6.314;2023-04-28T09:30:55;4.65;;;3.10;;
29934;SDS011;19905;53.370;-6.314;2023-04-28T09:33:25;4.97;;;3.25;;
29934;SDS011;19905;53.370;-6.314;2023-04-28T09:35:55;3.03;;;2.60;;
29934;SDS011;19905;53.370;-6.314;2023-04-28T09:38:24;3.88;;;2.85;;
29934;SDS011;19905;53.370;-6.314;2023-04-28T09:40:54;3.08;;;2.22;;
29934;SDS011;19905;53.370;-6.314;2023-04-28T09:43:29;2.75;;;1.30;;
29934;SDS011;19905;53.370;-6.314;2023-04-28T09:46:00;3.28;;;1.55;;
29934;SDS011;19905;53.370;-6.314;2023-04-28T09:48:32;1.80;;;1.60;;
29934;SDS011;19905;53.370;-6.314;2023-04-28T09:51:04;1.83;;;1.50;;
29934;SDS011;19905;53.370;-6.314;2023-04-28T09:53:35;1.30;;;1.20;;
29934;SDS011;19905;53.370;-6.314;2023-04-28T09:56:04;2.63;;;1.98;;
29934;SDS011;19905;53.370;-6.314;2023-04-28T09:58:36;2.60;;;1.92;;
29934;SDS011;19905;53.370;-6.314;2023-04-28T10:01:08;2.72;;;1.67;;
29934;SDS011;19905;53.370;-6.314;2023-04-28T10:03:38;2.50;;;1.77;;
29934;SDS011;19905;53.370;-6.314;2023-04-28T10:06:07;3.58;;;1.98;;
29934;SDS011;19905;53.370;-6.314;2023-04-28T10:08:36;2.88;;;2.15;;
29934;SDS011;19905;53.370;-6.314;2023-04-28T10:11:06;2.53;;;2.08;;
29934;SDS011;19905;53.370;-6.314;2023-04-28T10:13:37;2.55;;;2.13;;
29934;SDS011;19905;53.370;-6.314;2023-04-28T10:16:06;2.78;;;2.28;;
29934;SDS011;19905;53.370;-6.314;2023-04-28T10:18:35;3.03;;;2.38;;
29934;SDS011;19905;53.370;-6.314;2023-04-28T10:21:04;2.30;;;2.10;;
29934;SDS011;19905;53.370;-6.314;2023-04-28T10:29:34;3.38;;;2.75;;
29934;SDS011;19905;53.370;-6.314;2023-04-28T10:32:19;3.63;;;3.10;;
29934;SDS011;19905;53.370;-6.314;2023-04-28T10:34:51;4.35;;;3.15;;
29934;SDS011;19905;53.370;-6.314;2023-04-28T10:37:20;4.35;;;3.50;;
29934;SDS011;19905;53.370;-6.314;2023-04-28T10:40:30;4.47;;;3.30;;
29934;SDS011;19905;53.370;-6.314;2023-04-28T10:42:59;4.40;;;3.70;;
29934;SDS011;19905;53.370;-6.314;2023-04-28T10:51:33;3.70;;;3.00;;
29934;SDS011;19905;53.370;-6.314;2023-04-28T10:54:12;4.63;;;3.40;;
29934;SDS011;19905;53.370;-6.314;2023-04-28T10:59:54;5.00;;;2.45;;
29934;SDS011;19905;53.370;-6.314;2023-04-28T11:02:59;2.22;;;1.70;;
29934;SDS011;19905;53.370;-6.314;2023-04-28T11:05:28;2.92;;;1.60;;
29934;SDS011;19905;53.370;-6.314;2023-04-28T11:11:16;1.63;;;1.52;;
29934;SDS011;19905;53.370;-6.314;2023-04-28T11:13:47;3.55;;;1.25;;
29934;SDS011;19905;53.370;-6.314;2023-04-28T11:16:18;1.70;;;1.10;;
29934;SDS011;19905;53.370;-6.314;2023-04-28T11:18:51;1.83;;;1.10;;
29934;SDS011;19905;53.370;-6.314;2023-04-28T11:21:25;1.52;;;1.00;;
29934;SDS011;19905;53.370;-6.314;2023-04-28T11:23:56;3.53;;;1.17;;
29934;SDS011;19905;53.370;-6.314;2023-04-28T11:26:26;1.80;;;1.10;;
29934;SDS011;19905;53.370;-6.314;2023-04-28T11:28:57;1.13;;;0.90;;
29934;SDS011;19905;53.370;-6.314;2023-04-28T11:31:25;1.00;;;0.90;;
29934;SDS011;19905;53.370;-6.314;2023-04-28T11:34:05;1.48;;;0.80;;
29934;SDS011;19905;53.370;-6.314;2023-04-28T11:36:37;1.05;;;0.85;;
29934;SDS011;19905;53.370;-6.314;2023-04-28T11:39:08;1.08;;;0.80;;
29934;SDS011;19905;53.370;-6.314;2023-04-28T11:41:38;3.60;;;0.90;;
29934;SDS011;19905;53.370;-6.314;2023-04-28T11:44:11;2.63;;;0.90;;
29934;SDS011;19905;53.370;-6.314;2023-04-28T11:46:44;1.52;;;0.90;;
29934;SDS011;19905;53.370;-6.314;2023-04-28T11:49:18;2.92;;;0.80;;
29934;SDS011;19905;53.370;-6.314;2023-04-28T11:51:46;0.85;;;0.63;;
29934;SDS011;19905;53.370;-6.314;2023-04-28T11:54:19;2.20;;;0.70;;
29934;SDS011;19905;53.370;-6.314;2023-04-28T11:56:49;0.70;;;0.63;;
29934;SDS011;19905;53.370;-6.314;2023-04-28T11:59:21;1.20;;;0.80;;
29934;SDS011;19905;53.370;-6.314;2023-04-28T12:01:52;0.90;;;0.70;;
29934;SDS011;19905;53.370;-6.314;2023-04-28T12:04:28;1.17;;;0.60;;
29934;SDS011;19905;53.370;-6.314;2023-04-28T12:07:02;1.38;;;0.80;;
29934;SDS011;19905;53.370;-6.314;2023-04-28T12:09:33;0.80;;;0.60;;
29934;SDS011;19905;53.370;-6.314;2023-04-28T12:12:02;0.98;;;0.60;;
29934;SDS011;19905;53.370;-6.314;2023-04-28T12:17:24;3.88;;;1.10;;
29934;SDS011;19905;53.370;-6.314;2023-04-28T12:19:59;1.38;;;1.10;;
29934;SDS011;19905;53.370;-6.314;2023-04-28T12:22:29;1.92;;;0.90;;
29934;SDS011;19905;53.370;-6.314;2023-04-28T12:25:01;1.10;;;0.93;;
29934;SDS011;19905;53.370;-6.314;2023-04-28T12:27:32;2.95;;;1.20;;
29934;SDS011;19905;53.370;-6.314;2023-04-28T12:32:53;1.10;;;0.80;;
29934;SDS011;19905;53.370;-6.314;2023-04-28T12:35:25;1.30;;;0.80;;
29934;SDS011;19905;53.370;-6.314;2023-04-28T12:37:56;2.42;;;0.85;;
29934;SDS011;19905;53.370;-6.314;2023-04-28T12:40:25;1.38;;;0.82;;
29934;SDS011;19905;53.370;-6.314;2023-04-28T12:42:53;1.95;;;0.70;;
29934;SDS011;19905;53.370;-6.314;2023-04-28T12:45:22;2.05;;;0.93;;
29934;SDS011;19905;53.370;-6.314;2023-04-28T12:47:51;3.35;;;1.27;;
29934;SDS011;19905;53.370;-6.314;2023-04-28T12:50:22;1.75;;;1.20;;
29934;SDS011;19905;53.370;-6.314;2023-04-28T12:52:53;1.45;;;1.35;;
29934;SDS011;19905;53.370;-6.314;2023-04-28T12:55:22;1.48;;;1.38;;
29934;SDS011;19905;53.370;-6.314;2023-04-28T12:57:50;1.40;;;1.30;;
29934;SDS011;19905;53.370;-6.314;2023-04-28T13:00:19;1.88;;;1.20;;
29934;SDS011;19905;53.370;-6.314;2023-04-28T13:02:49;0.80;;;0.80;;
29934;SDS011;19905;53.370;-6.314;2023-04-28T13:05:18;1.20;;;0.85;;
29934;SDS011;19905;53.370;-6.314;2023-04-28T13:07:48;1.20;;;0.90;;
29934;SDS011;19905;53.370;-6.314;2023-04-28T13:10:19;1.42;;;0.90;;
29934;SDS011;19905;53.370;-6.314;2023-04-28T13:12:49;2.08;;;1.10;;
29934;SDS011;19905;53.370;-6.314;2023-04-28T13:15:19;1.23;;;1.10;;
29934;SDS011;19905;53.370;-6.314;2023-04-28T13:17:48;1.10;;;1.00;;
29934;SDS011;19905;53.370;-6.314;2023-04-28T13:20:17;1.92;;;1.17;;
29934;SDS011;19905;53.370;-6.314;2023-04-28T13:22:47;2.25;;;1.30;;
29934;SDS011;19905;53.370;-6.314;2023-04-28T13:25:16;1.60;;;1.00;;
29934;SDS011;19905;53.370;-6.314;2023-04-28T13:27:47;1.33;;;1.00;;
29934;SDS011;19905;53.370;-6.314;2023-04-28T13:30:16;1.35;;;0.82;;
29934;SDS011;19905;53.370;-6.314;2023-04-28T13:32:44;1.05;;;0.95;;
29934;SDS011;19905;53.370;-6.314;2023-04-28T13:35:13;2.22;;;0.90;;
29934;SDS011;19905;53.370;-6.314;2023-04-28T13:37:41;0.80;;;0.70;;
29934;SDS011;19905;53.370;-6.314;2023-04-28T13:40:11;2.53;;;0.80;;
29934;SDS011;19905;53.370;-6.314;2023-04-28T13:42:41;1.60;;;1.00;;
29934;SDS011;19905;53.370;-6.314;2023-04-28T13:45:10;1.02;;;0.90;;
29934;SDS011;19905;53.370;-6.314;2023-04-28T13:47:42;2.67;;;1.17;;
29934;SDS011;19905;53.370;-6.314;2023-04-28T13:50:11;1.80;;;1.20;;
29934;SDS011;19905;53.370;-6.314;2023-04-28T13:52:39;2.30;;;1.30;;
29934;SDS011;19905;53.370;-6.314;2023-04-28T13:55:08;1.70;;;1.60;;
29934;SDS011;19905;53.370;-6.314;2023-04-28T13:57:37;2.20;;;1.50;;
29934;SDS011;19905;53.370;-6.314;2023-04-28T14:00:09;1.88;;;1.67;;
29934;SDS011;19905;53.370;-6.314;2023-04-28T14:02:39;1.85;;;1.70;;
29934;SDS011;19905;53.370;-6.314;2023-04-28T14:05:09;1.70;;;1.30;;
29934;SDS011;19905;53.370;-6.314;2023-04-28T14:07:38;2.45;;;1.50;;
29934;SDS011;19905;53.370;-6.314;2023-04-28T14:10:07;3.30;;;1.52;;
29934;SDS011;19905;53.370;-6.314;2023-04-28T14:12:37;1.27;;;1.17;;
29934;SDS011;19905;53.370;-6.314;2023-04-28T14:15:06;1.92;;;1.23;;
29934;SDS011;19905;53.370;-6.314;2023-04-28T14:17:37;5.50;;;1.20;;
29934;SDS011;19905;53.370;-6.314;2023-04-28T14:20:06;2.70;;;1.10;;
29934;SDS011;19905;53.370;-6.314;2023-04-28T14:22:38;1.60;;;0.80;;
29934;SDS011;19905;53.370;-6.314;2023-04-28T14:25:08;1.90;;;0.90;;
29934;SDS011;19905;53.370;-6.314;2023-04-28T14:27:37;1.33;;;0.70;;
29934;SDS011;19905;53.370;-6.314;2023-04-28T14:30:06;1.50;;;0.80;;
29934;SDS011;19905;53.370;-6.314;2023-04-28T14:32:37;1.30;;;0.80;;
29934;SDS011;19905;53.370;-6.314;2023-04-28T14:35:06;1.15;;;0.60;;
29934;SDS011;19905;53.370;-6.314;2023-04-28T14:37:35;1.70;;;0.60;;
29934;SDS011;19905;53.370;-6.314;2023-04-28T14:40:05;1.70;;;0.50;;
29934;SDS011;19905;53.370;-6.314;2023-04-28T14:42:35;1.17;;;0.60;;
29934;SDS011;19905;53.370;-6.314;2023-04-28T14:45:04;1.67;;;0.63;;
29934;SDS011;19905;53.370;-6.314;2023-04-28T14:47:35;0.93;;;0.50;;
29934;SDS011;19905;53.370;-6.314;2023-04-28T14:50:06;1.42;;;0.57;;
29934;SDS011;19905;53.370;-6.314;2023-04-28T14:52:39;0.60;;;0.50;;
29934;SDS011;19905;53.370;-6.314;2023-04-28T14:55:08;0.40;;;0.40;;
29934;SDS011;19905;53.370;-6.314;2023-04-28T14:57:37;1.55;;;0.40;;
29934;SDS011;19905;53.370;-6.314;2023-04-28T15:00:06;0.90;;;0.50;;
29934;SDS011;19905;53.370;-6.314;2023-04-28T15:02:37;0.70;;;0.47;;
29934;SDS011;19905;53.370;-6.314;2023-04-28T15:05:06;1.40;;;0.60;;
29934;SDS011;19905;53.370;-6.314;2023-04-28T15:07:37;0.73;;;0.70;;
29934;SDS011;19905;53.370;-6.314;2023-04-28T15:10:06;1.40;;;0.80;;